Terminal Aerodrome Forecast
Issued by NWS Central Illinois

Home | Current Version | Previous Version | Text Only | Print | Product List | Glossary On
Versions: 1 2 3 4 5 6 7 8 9 10 11 12 13 14 15 16 17 18 19 20 21 22
759
FTUS43 KILX 230537
TAFPIA
TAF
KPIA 230537Z 2306/2406 34012KT 6SM BR BKN009
     FM231600 33008KT P6SM BKN015
     FM231800 33008KT P6SM BKN020
     FM240100 32004KT P6SM BKN025=

USA.gov is the U.S. government's official web portal to all federal, state and local government web resources and services.